sensor_id;sensor_type;location;lat;lon;timestamp;P1;durP1;ratioP1;P2;durP2;ratioP2
6475;SDS011;3271;51.910;5.840;2023-02-28T00:00:00;5.03;;;2.75;;
6475;SDS011;3271;51.910;5.840;2023-02-28T00:02:33;3.70;;;3.40;;
6475;SDS011;3271;51.910;5.840;2023-02-28T00:04:59;4.03;;;3.45;;
6475;SDS011;3271;51.910;5.840;2023-02-28T00:07:28;4.93;;;3.70;;
6475;SDS011;3271;51.910;5.840;2023-02-28T00:09:54;5.35;;;3.97;;
6475;SDS011;3271;51.910;5.840;2023-02-28T00:12:20;4.22;;;3.72;;
6475;SDS011;3271;51.910;5.840;2023-02-28T00:14:46;4.45;;;3.45;;
6475;SDS011;3271;51.910;5.840;2023-02-28T00:17:12;3.33;;;3.00;;
6475;SDS011;3271;51.910;5.840;2023-02-28T00:19:38;4.47;;;3.13;;
6475;SDS011;3271;51.910;5.840;2023-02-28T00:22:04;3.75;;;3.25;;
6475;SDS011;3271;51.910;5.840;2023-02-28T00:24:30;3.40;;;3.10;;
6475;SDS011;3271;51.910;5.840;2023-02-28T00:26:56;3.35;;;2.90;;
6475;SDS011;3271;51.910;5.840;2023-02-28T00:29:22;3.15;;;2.90;;
6475;SDS011;3271;51.910;5.840;2023-02-28T00:31:48;3.17;;;2.83;;
6475;SDS011;3271;51.910;5.840;2023-02-28T00:34:14;3.05;;;2.75;;
6475;SDS011;3271;51.910;5.840;2023-02-28T00:36:40;3.30;;;3.00;;
6475;SDS011;3271;51.910;5.840;2023-02-28T00:39:10;4.15;;;2.72;;
6475;SDS011;3271;51.910;5.840;2023-02-28T00:41:36;5.07;;;3.15;;
6475;SDS011;3271;51.910;5.840;2023-02-28T00:44:01;2.90;;;2.70;;
6475;SDS011;3271;51.910;5.840;2023-02-28T00:46:27;5.10;;;3.30;;
6475;SDS011;3271;51.910;5.840;2023-02-28T00:48:53;3.80;;;3.50;;
6475;SDS011;3271;51.910;5.840;2023-02-28T00:51:19;6.50;;;3.00;;
6475;SDS011;3271;51.910;5.840;2023-02-28T00:53:45;3.38;;;3.08;;
6475;SDS011;3271;51.910;5.840;2023-02-28T00:56:11;3.40;;;2.83;;
6475;SDS011;3271;51.910;5.840;2023-02-28T00:58:37;4.32;;;2.78;;
6475;SDS011;3271;51.910;5.840;2023-02-28T01:01:03;2.92;;;2.63;;
6475;SDS011;3271;51.910;5.840;2023-02-28T01:03:29;3.10;;;2.80;;
6475;SDS011;3271;51.910;5.840;2023-02-28T01:05:55;4.93;;;3.43;;
6475;SDS011;3271;51.910;5.840;2023-02-28T01:08:21;3.10;;;2.80;;
6475;SDS011;3271;51.910;5.840;2023-02-28T01:10:47;3.80;;;2.83;;
6475;SDS011;3271;51.910;5.840;2023-02-28T01:13:13;3.97;;;3.57;;
6475;SDS011;3271;51.910;5.840;2023-02-28T01:15:40;3.47;;;2.75;;
6475;SDS011;3271;51.910;5.840;2023-02-28T01:18:07;4.90;;;2.88;;
6475;SDS011;3271;51.910;5.840;2023-02-28T01:20:33;3.53;;;3.22;;
6475;SDS011;3271;51.910;5.840;2023-02-28T01:23:02;3.15;;;2.85;;
6475;SDS011;3271;51.910;5.840;2023-02-28T01:25:27;2.87;;;2.67;;
6475;SDS011;3271;51.910;5.840;2023-02-28T01:27:53;3.13;;;2.75;;
6475;SDS011;3271;51.910;5.840;2023-02-28T01:30:19;3.33;;;3.03;;
6475;SDS011;3271;51.910;5.840;2023-02-28T01:32:45;4.77;;;2.97;;
6475;SDS011;3271;51.910;5.840;2023-02-28T01:35:11;3.05;;;2.55;;
6475;SDS011;3271;51.910;5.840;2023-02-28T01:37:37;5.63;;;3.33;;
6475;SDS011;3271;51.910;5.840;2023-02-28T01:40:03;3.47;;;3.00;;
6475;SDS011;3271;51.910;5.840;2023-02-28T01:42:29;4.05;;;2.92;;
6475;SDS011;3271;51.910;5.840;2023-02-28T01:45:04;4.15;;;2.88;;
6475;SDS011;3271;51.910;5.840;2023-02-28T01:47:36;3.85;;;2.85;;
6475;SDS011;3271;51.910;5.840;2023-02-28T01:50:06;3.90;;;3.15;;
6475;SDS011;3271;51.910;5.840;2023-02-28T01:52:33;4.00;;;3.20;;
6475;SDS011;3271;51.910;5.840;2023-02-28T01:54:59;3.10;;;2.83;;
6475;SDS011;3271;51.910;5.840;2023-02-28T01:57:28;3.53;;;3.20;;
6475;SDS011;3271;51.910;5.840;2023-02-28T01:59:56;4.55;;;3.25;;
6475;SDS011;3271;51.910;5.840;2023-02-28T02:02:23;3.20;;;2.90;;
6475;SDS011;3271;51.910;5.840;2023-02-28T02:04:57;3.40;;;2.93;;
6475;SDS011;3271;51.910;5.840;2023-02-28T02:07:26;4.70;;;2.95;;
6475;SDS011;3271;51.910;5.840;2023-02-28T02:10:03;3.58;;;3.05;;
6475;SDS011;3271;51.910;5.840;2023-02-28T02:15:22;3.87;;;2.97;;
6475;SDS011;3271;51.910;5.840;2023-02-28T02:17:51;4.97;;;3.33;;
6475;SDS011;3271;51.910;5.840;2023-02-28T02:20:32;4.43;;;2.80;;
6475;SDS011;3271;51.910;5.840;2023-02-28T02:23:08;3.30;;;3.00;;
6475;SDS011;3271;51.910;5.840;2023-02-28T02:25:54;5.22;;;3.20;;
6475;SDS011;3271;51.910;5.840;2023-02-28T02:28:45;4.90;;;3.13;;
6475;SDS011;3271;51.910;5.840;2023-02-28T02:34:05;3.83;;;3.42;;
6475;SDS011;3271;51.910;5.840;2023-02-28T02:36:38;3.60;;;3.23;;
6475;SDS011;3271;51.910;5.840;2023-02-28T02:41:38;4.32;;;3.92;;
6475;SDS011;3271;51.910;5.840;2023-02-28T02:44:19;3.60;;;3.30;;
6475;SDS011;3271;51.910;5.840;2023-02-28T02:46:47;4.43;;;3.67;;
6475;SDS011;3271;51.910;5.840;2023-02-28T02:49:18;3.50;;;3.20;;
6475;SDS011;3271;51.910;5.840;2023-02-28T02:51:46;4.60;;;3.47;;
6475;SDS011;3271;51.910;5.840;2023-02-28T02:54:15;4.17;;;3.80;;
6475;SDS011;3271;51.910;5.840;2023-02-28T02:56:43;4.95;;;3.28;;
6475;SDS011;3271;51.910;5.840;2023-02-28T02:59:11;4.20;;;3.60;;
6475;SDS011;3271;51.910;5.840;2023-02-28T03:01:38;3.40;;;3.10;;
6475;SDS011;3271;51.910;5.840;2023-02-28T03:04:06;3.63;;;3.03;;
6475;SDS011;3271;51.910;5.840;2023-02-28T03:06:33;4.27;;;3.87;;
6475;SDS011;3271;51.910;5.840;2023-02-28T03:09:00;3.90;;;3.60;;
6475;SDS011;3271;51.910;5.840;2023-02-28T03:11:26;3.23;;;2.93;;
6475;SDS011;3271;51.910;5.840;2023-02-28T03:14:15;3.80;;;3.30;;
6475;SDS011;3271;51.910;5.840;2023-02-28T03:24:25;3.83;;;3.43;;
6475;SDS011;3271;51.910;5.840;2023-02-28T03:26:58;5.00;;;3.33;;
6475;SDS011;3271;51.910;5.840;2023-02-28T03:31:59;4.03;;;3.47;;
6475;SDS011;3271;51.910;5.840;2023-02-28T03:34:34;4.50;;;3.73;;
6475;SDS011;3271;51.910;5.840;2023-02-28T03:37:07;3.47;;;3.10;;
6475;SDS011;3271;51.910;5.840;2023-02-28T03:39:39;4.40;;;3.30;;
6475;SDS011;3271;51.910;5.840;2023-02-28T03:42:07;3.53;;;3.13;;
6475;SDS011;3271;51.910;5.840;2023-02-28T03:44:42;3.60;;;3.30;;
6475;SDS011;3271;51.910;5.840;2023-02-28T03:47:10;4.50;;;3.57;;
6475;SDS011;3271;51.910;5.840;2023-02-28T03:49:40;4.70;;;3.13;;
6475;SDS011;3271;51.910;5.840;2023-02-28T03:52:12;4.67;;;3.10;;
6475;SDS011;3271;51.910;5.840;2023-02-28T03:54:41;4.50;;;3.17;;
6475;SDS011;3271;51.910;5.840;2023-02-28T03:57:56;3.80;;;3.33;;
6475;SDS011;3271;51.910;5.840;2023-02-28T03:59:59;3.97;;;3.53;;
6475;SDS011;3271;51.910;5.840;2023-02-28T04:02:25;2.77;;;2.57;;
6475;SDS011;3271;51.910;5.840;2023-02-28T04:04:51;4.80;;;3.20;;
6475;SDS011;3271;51.910;5.840;2023-02-28T04:07:17;3.63;;;3.33;;
6475;SDS011;3271;51.910;5.840;2023-02-28T04:09:43;4.05;;;3.55;;
6475;SDS011;3271;51.910;5.840;2023-02-28T04:12:09;3.65;;;3.35;;
6475;SDS011;3271;51.910;5.840;2023-02-28T04:14:35;5.03;;;3.37;;
6475;SDS011;3271;51.910;5.840;2023-02-28T04:17:01;3.03;;;2.77;;
6475;SDS011;3271;51.910;5.840;2023-02-28T04:19:27;3.57;;;3.27;;
6475;SDS011;3271;51.910;5.840;2023-02-28T04:21:53;2.73;;;2.53;;
6475;SDS011;3271;51.910;5.840;2023-02-28T04:24:21;3.20;;;2.90;;
6475;SDS011;3271;51.910;5.840;2023-02-28T04:26:48;3.17;;;2.93;;
6475;SDS011;3271;51.910;5.840;2023-02-28T04:29:20;4.07;;;2.90;;
6475;SDS011;3271;51.910;5.840;2023-02-28T04:31:47;3.50;;;2.75;;
6475;SDS011;3271;51.910;5.840;2023-02-28T04:34:13;3.20;;;2.90;;
6475;SDS011;3271;51.910;5.840;2023-02-28T04:36:39;2.70;;;2.50;;
6475;SDS011;3271;51.910;5.840;2023-02-28T04:39:05;3.43;;;2.47;;
6475;SDS011;3271;51.910;5.840;2023-02-28T04:41:31;3.63;;;2.93;;
6475;SDS011;3271;51.910;5.840;2023-02-28T04:43:57;3.80;;;2.63;;
6475;SDS011;3271;51.910;5.840;2023-02-28T04:46:23;3.07;;;2.77;;
6475;SDS011;3271;51.910;5.840;2023-02-28T04:48:49;4.72;;;2.78;;
6475;SDS011;3271;51.910;5.840;2023-02-28T04:51:16;3.75;;;2.33;;
6475;SDS011;3271;51.910;5.840;2023-02-28T04:53:42;3.67;;;2.70;;
6475;SDS011;3271;51.910;5.840;2023-02-28T04:56:10;3.47;;;2.57;;
6475;SDS011;3271;51.910;5.840;2023-02-28T04:58:37;2.95;;;2.63;;
6475;SDS011;3271;51.910;5.840;2023-02-28T05:01:04;2.80;;;2.58;;
6475;SDS011;3271;51.910;5.840;2023-02-28T05:03:37;5.97;;;3.13;;
6475;SDS011;3271;51.910;5.840;2023-02-28T05:06:03;2.73;;;2.40;;
6475;SDS011;3271;51.910;5.840;2023-02-28T05:08:29;5.03;;;2.93;;
6475;SDS011;3271;51.910;5.840;2023-02-28T05:10:55;3.47;;;2.45;;
6475;SDS011;3271;51.910;5.840;2023-02-28T05:13:21;5.00;;;2.53;;
6475;SDS011;3271;51.910;5.840;2023-02-28T05:15:47;2.60;;;2.00;;
6475;SDS011;3271;51.910;5.840;2023-02-28T05:18:13;2.08;;;1.88;;
6475;SDS011;3271;51.910;5.840;2023-02-28T05:20:39;2.17;;;2.00;;
6475;SDS011;3271;51.910;5.840;2023-02-28T05:23:05;2.50;;;1.88;;
6475;SDS011;3271;51.910;5.840;2023-02-28T05:25:31;2.50;;;2.30;;
6475;SDS011;3271;51.910;5.840;2023-02-28T05:27:57;3.95;;;2.17;;
6475;SDS011;3271;51.910;5.840;2023-02-28T05:30:23;1.60;;;1.50;;
6475;SDS011;3271;51.910;5.840;2023-02-28T05:32:50;3.75;;;1.80;;
6475;SDS011;3271;51.910;5.840;2023-02-28T05:35:16;1.88;;;1.73;;
6475;SDS011;3271;51.910;5.840;2023-02-28T05:37:43;2.30;;;1.90;;
6475;SDS011;3271;51.910;5.840;2023-02-28T05:40:09;2.08;;;1.88;;
6475;SDS011;3271;51.910;5.840;2023-02-28T05:42:35;2.20;;;1.60;;
6475;SDS011;3271;51.910;5.840;2023-02-28T05:45:02;1.80;;;1.70;;
6475;SDS011;3271;51.910;5.840;2023-02-28T05:47:28;1.67;;;1.58;;
6475;SDS011;3271;51.910;5.840;2023-02-28T05:49:54;1.60;;;1.50;;
6475;SDS011;3271;51.910;5.840;2023-02-28T05:52:20;1.60;;;1.50;;
6475;SDS011;3271;51.910;5.840;2023-02-28T05:54:46;2.33;;;1.58;;
6475;SDS011;3271;51.910;5.840;2023-02-28T05:57:12;2.20;;;1.70;;
6475;SDS011;3271;51.910;5.840;2023-02-28T05:59:38;1.88;;;1.77;;
6475;SDS011;3271;51.910;5.840;2023-02-28T06:02:05;2.58;;;1.65;;
6475;SDS011;3271;51.910;5.840;2023-02-28T06:04:31;2.42;;;1.50;;
6475;SDS011;3271;51.910;5.840;2023-02-28T06:06:57;3.45;;;1.75;;
6475;SDS011;3271;51.910;5.840;2023-02-28T06:09:23;2.72;;;1.80;;
6475;SDS011;3271;51.910;5.840;2023-02-28T06:11:49;1.73;;;1.63;;
6475;SDS011;3271;51.910;5.840;2023-02-28T06:14:17;2.03;;;1.70;;
6475;SDS011;3271;51.910;5.840;2023-02-28T06:16:44;1.90;;;1.63;;
6475;SDS011;3271;51.910;5.840;2023-02-28T06:19:10;1.45;;;1.35;;
6475;SDS011;3271;51.910;5.840;2023-02-28T06:21:36;1.85;;;1.75;;
6475;SDS011;3271;51.910;5.840;2023-02-28T06:24:02;1.70;;;1.45;;
6475;SDS011;3271;51.910;5.840;2023-02-28T06:26:29;2.13;;;1.58;;
6475;SDS011;3271;51.910;5.840;2023-02-28T06:28:55;1.73;;;1.63;;
6475;SDS011;3271;51.910;5.840;2023-02-28T06:31:21;2.38;;;1.70;;
6475;SDS011;3271;51.910;5.840;2023-02-28T06:33:48;3.72;;;3.03;;
6475;SDS011;3271;51.910;5.840;2023-02-28T06:36:15;1.88;;;1.77;;
6475;SDS011;3271;51.910;5.840;2023-02-28T06:38:42;2.70;;;2.00;;
6475;SDS011;3271;51.910;5.840;2023-02-28T06:41:08;3.00;;;2.00;;
6475;SDS011;3271;51.910;5.840;2023-02-28T06:43:36;2.33;;;2.05;;
6475;SDS011;3271;51.910;5.840;2023-02-28T06:46:05;2.35;;;2.05;;
6475;SDS011;3271;51.910;5.840;2023-02-28T06:48:31;2.40;;;2.20;;
6475;SDS011;3271;51.910;5.840;2023-02-28T06:51:01;2.33;;;2.13;;
6475;SDS011;3271;51.910;5.840;2023-02-28T06:53:27;2.05;;;1.95;;
6475;SDS011;3271;51.910;5.840;2023-02-28T06:55:53;2.40;;;2.20;;
6475;SDS011;3271;51.910;5.840;2023-02-28T06:58:20;2.85;;;2.55;;
6475;SDS011;3271;51.910;5.840;2023-02-28T07:00:50;2.30;;;2.10;;
6475;SDS011;3271;51.910;5.840;2023-02-28T07:03:16;2.85;;;2.25;;
6475;SDS011;3271;51.910;5.840;2023-02-28T07:05:43;3.67;;;2.25;;
6475;SDS011;3271;51.910;5.840;2023-02-28T07:08:09;2.67;;;2.08;;
6475;SDS011;3271;51.910;5.840;2023-02-28T07:10:37;3.30;;;1.92;;
6475;SDS011;3271;51.910;5.840;2023-02-28T07:13:03;2.90;;;2.38;;
6475;SDS011;3271;51.910;5.840;2023-02-28T07:15:29;3.03;;;2.40;;
6475;SDS011;3271;51.910;5.840;2023-02-28T07:17:55;2.75;;;2.55;;
6475;SDS011;3271;51.910;5.840;2023-02-28T07:20:22;2.42;;;2.15;;
6475;SDS011;3271;51.910;5.840;2023-02-28T07:22:48;2.92;;;2.30;;
6475;SDS011;3271;51.910;5.840;2023-02-28T07:25:20;2.67;;;2.30;;
6475;SDS011;3271;51.910;5.840;2023-02-28T07:27:46;3.08;;;2.33;;
6475;SDS011;3271;51.910;5.840;2023-02-28T07:30:12;2.78;;;2.33;;
6475;SDS011;3271;51.910;5.840;2023-02-28T07:32:38;2.70;;;2.40;;
6475;SDS011;3271;51.910;5.840;2023-02-28T07:35:04;3.40;;;2.88;;
6475;SDS011;3271;51.910;5.840;2023-02-28T07:37:30;4.05;;;3.17;;
6475;SDS011;3271;51.910;5.840;2023-02-28T07:40:01;6.43;;;3.60;;
6475;SDS011;3271;51.910;5.840;2023-02-28T07:42:29;4.82;;;3.20;;
6475;SDS011;3271;51.910;5.840;2023-02-28T07:44:55;4.13;;;3.00;;
6475;SDS011;3271;51.910;5.840;2023-02-28T07:47:20;5.40;;;3.78;;
6475;SDS011;3271;51.910;5.840;2023-02-28T07:49:46;3.97;;;3.20;;
6475;SDS011;3271;51.910;5.840;2023-02-28T07:52:12;3.42;;;3.08;;
6475;SDS011;3271;51.910;5.840;2023-02-28T07:54:38;4.50;;;2.90;;
6475;SDS011;3271;51.910;5.840;2023-02-28T07:57:04;3.40;;;3.05;;
6475;SDS011;3271;51.910;5.840;2023-02-28T07:59:30;4.35;;;3.85;;
6475;SDS011;3271;51.910;5.840;2023-02-28T08:01:57;4.78;;;3.40;;
6475;SDS011;3271;51.910;5.840;2023-02-28T08:04:23;6.10;;;4.00;;
6475;SDS011;3271;51.910;5.840;2023-02-28T08:06:49;3.40;;;3.10;;
6475;SDS011;3271;51.910;5.840;2023-02-28T08:09:17;3.30;;;3.00;;
6475;SDS011;3271;51.910;5.840;2023-02-28T08:11:43;3.20;;;2.90;;
6475;SDS011;3271;51.910;5.840;2023-02-28T08:14:08;3.42;;;2.00;;
6475;SDS011;3271;51.910;5.840;2023-02-28T08:16:34;2.60;;;2.00;;
6475;SDS011;3271;51.910;5.840;2023-02-28T08:19:00;2.40;;;2.20;;
6475;SDS011;3271;51.910;5.840;2023-02-28T08:21:26;2.63;;;2.13;;
6475;SDS011;3271;51.910;5.840;2023-02-28T08:23:52;2.38;;;2.17;;
6475;SDS011;3271;51.910;5.840;2023-02-28T08:26:19;3.65;;;3.17;;
6475;SDS011;3271;51.910;5.840;2023-02-28T08:28:45;2.20;;;2.00;;
6475;SDS011;3271;51.910;5.840;2023-02-28T08:31:12;3.50;;;2.80;;
6475;SDS011;3271;51.910;5.840;2023-02-28T08:33:38;2.47;;;2.28;;
6475;SDS011;3271;51.910;5.840;2023-02-28T08:36:05;2.90;;;2.20;;
6475;SDS011;3271;51.910;5.840;2023-02-28T08:38:31;1.85;;;1.67;;
6475;SDS011;3271;51.910;5.840;2023-02-28T08:41:02;2.30;;;2.10;;
6475;SDS011;3271;51.910;5.840;2023-02-28T08:43:28;2.20;;;2.00;;
6475;SDS011;3271;51.910;5.840;2023-02-28T08:45:55;1.73;;;1.60;;
6475;SDS011;3271;51.910;5.840;2023-02-28T08:48:24;2.10;;;1.90;;
6475;SDS011;3271;51.910;5.840;2023-02-28T08:51:00;2.85;;;1.92;;
6475;SDS011;3271;51.910;5.840;2023-02-28T08:53:27;3.28;;;2.33;;
6475;SDS011;3271;51.910;5.840;2023-02-28T08:56:01;2.15;;;1.95;;
6475;SDS011;3271;51.910;5.840;2023-02-28T08:58:30;2.05;;;1.52;;
6475;SDS011;3271;51.910;5.840;2023-02-28T09:00:56;1.85;;;1.75;;
6475;SDS011;3271;51.910;5.840;2023-02-28T09:03:22;2.25;;;2.00;;
6475;SDS011;3271;51.910;5.840;2023-02-28T09:05:54;3.15;;;1.55;;
6475;SDS011;3271;51.910;5.840;2023-02-28T09:08:21;1.48;;;1.38;;
6475;SDS011;3271;51.910;5.840;2023-02-28T09:10:47;1.60;;;1.50;;
6475;SDS011;3271;51.910;5.840;2023-02-28T09:13:13;3.17;;;2.53;;
6475;SDS011;3271;51.910;5.840;2023-02-28T09:15:39;1.50;;;1.40;;
6475;SDS011;3271;51.910;5.840;2023-02-28T09:18:05;2.05;;;1.50;;
6475;SDS011;3271;51.910;5.840;2023-02-28T09:20:31;1.52;;;1.42;;
6475;SDS011;3271;51.910;5.840;2023-02-28T09:22:56;1.40;;;1.30;;
6475;SDS011;3271;51.910;5.840;2023-02-28T09:25:22;2.22;;;1.55;;
6475;SDS011;3271;51.910;5.840;2023-02-28T09:27:48;3.85;;;1.77;;
6475;SDS011;3271;51.910;5.840;2023-02-28T09:30:14;1.55;;;1.45;;
6475;SDS011;3271;51.910;5.840;2023-02-28T09:32:41;2.58;;;1.70;;
6475;SDS011;3271;51.910;5.840;2023-02-28T09:35:07;3.30;;;1.88;;
6475;SDS011;3271;51.910;5.840;2023-02-28T09:37:38;2.20;;;1.98;;
6475;SDS011;3271;51.910;5.840;2023-02-28T09:40:04;2.75;;;1.77;;
6475;SDS011;3271;51.910;5.840;2023-02-28T09:42:31;1.70;;;1.60;;
6475;SDS011;3271;51.910;5.840;2023-02-28T09:44:58;2.58;;;1.60;;
6475;SDS011;3271;51.910;5.840;2023-02-28T09:47:29;2.13;;;1.80;;
6475;SDS011;3271;51.910;5.840;2023-02-28T09:49:56;1.60;;;1.50;;
6475;SDS011;3271;51.910;5.840;2023-02-28T09:52:26;2.20;;;1.95;;
6475;SDS011;3271;51.910;5.840;2023-02-28T09:54:54;1.83;;;1.73;;
6475;SDS011;3271;51.910;5.840;2023-02-28T09:57:28;1.83;;;1.33;;
6475;SDS011;3271;51.910;5.840;2023-02-28T10:05:18;3.15;;;1.98;;
6475;SDS011;3271;51.910;5.840;2023-02-28T10:07:48;1.90;;;1.67;;
6475;SDS011;3271;51.910;5.840;2023-02-28T10:10:21;1.92;;;1.60;;
6475;SDS011;3271;51.910;5.840;2023-02-28T10:12:48;1.52;;;1.42;;
6475;SDS011;3271;51.910;5.840;2023-02-28T10:15:16;1.52;;;1.38;;
6475;SDS011;3271;51.910;5.840;2023-02-28T10:17:44;1.40;;;1.30;;
6475;SDS011;3271;51.910;5.840;2023-02-28T10:20:11;2.33;;;1.52;;
6475;SDS011;3271;51.910;5.840;2023-02-28T10:22:50;1.45;;;1.35;;
6475;SDS011;3271;51.910;5.840;2023-02-28T10:25:19;1.98;;;1.48;;
6475;SDS011;3271;51.910;5.840;2023-02-28T10:27:45;1.90;;;1.80;;
6475;SDS011;3271;51.910;5.840;2023-02-28T10:30:11;1.60;;;1.50;;
6475;SDS011;3271;51.910;5.840;2023-02-28T10:32:38;1.67;;;1.58;;
6475;SDS011;3271;51.910;5.840;2023-02-28T10:35:14;1.80;;;1.55;;
6475;SDS011;3271;51.910;5.840;2023-02-28T10:37:41;1.92;;;1.80;;
6475;SDS011;3271;51.910;5.840;2023-02-28T10:40:26;1.40;;;1.30;;
6475;SDS011;3271;51.910;5.840;2023-02-28T10:45:28;2.03;;;1.83;;
6475;SDS011;3271;51.910;5.840;2023-02-28T10:47:56;2.33;;;1.90;;
6475;SDS011;3271;51.910;5.840;2023-02-28T10:50:44;1.70;;;1.60;;
6475;SDS011;3271;51.910;5.840;2023-02-28T11:04:00;2.45;;;1.75;;
6475;SDS011;3271;51.910;5.840;2023-02-28T11:06:33;1.90;;;1.70;;
6475;SDS011;3271;51.910;5.840;2023-02-28T11:09:02;1.95;;;1.85;;
6475;SDS011;3271;51.910;5.840;2023-02-28T11:11:29;1.65;;;1.55;;
6475;SDS011;3271;51.910;5.840;2023-02-28T11:13:57;3.22;;;1.90;;
6475;SDS011;3271;51.910;5.840;2023-02-28T11:16:34;3.70;;;2.00;;
6475;SDS011;3271;51.910;5.840;2023-02-28T11:19:01;2.08;;;1.90;;
6475;SDS011;3271;51.910;5.840;2023-02-28T11:21:29;1.73;;;1.63;;
6475;SDS011;3271;51.910;5.840;2023-02-28T11:24:41;2.13;;;1.73;;
6475;SDS011;3271;51.910;5.840;2023-02-28T11:26:45;1.55;;;1.45;;
6475;SDS011;3271;51.910;5.840;2023-02-28T11:29:24;1.73;;;1.60;;
6475;SDS011;3271;51.910;5.840;2023-02-28T11:34:34;2.92;;;1.80;;
6475;SDS011;3271;51.910;5.840;2023-02-28T11:37:01;2.70;;;1.80;;
6475;SDS011;3271;51.910;5.840;2023-02-28T11:39:31;3.47;;;1.95;;
6475;SDS011;3271;51.910;5.840;2023-02-28T11:44:55;2.17;;;1.70;;
6475;SDS011;3271;51.910;5.840;2023-02-28T11:50:00;1.58;;;1.38;;
6475;SDS011;3271;51.910;5.840;2023-02-28T11:55:11;2.60;;;1.70;;
6475;SDS011;3271;51.910;5.840;2023-02-28T12:00:40;1.75;;;1.65;;
6475;SDS011;3271;51.910;5.840;2023-02-28T12:08:26;2.13;;;1.92;;
6475;SDS011;3271;51.910;5.840;2023-02-28T12:11:11;2.72;;;1.70;;
6475;SDS011;3271;51.910;5.840;2023-02-28T12:13:46;2.80;;;1.70;;
6475;SDS011;3271;51.910;5.840;2023-02-28T12:16:24;1.90;;;1.80;;
6475;SDS011;3271;51.910;5.840;2023-02-28T12:18:59;1.70;;;1.60;;
6475;SDS011;3271;51.910;5.840;2023-02-28T12:24:14;2.25;;;1.92;;
6475;SDS011;3271;51.910;5.840;2023-02-28T12:26:44;2.17;;;1.70;;
6475;SDS011;3271;51.910;5.840;2023-02-28T12:31:36;1.70;;;1.60;;
6475;SDS011;3271;51.910;5.840;2023-02-28T12:34:05;2.08;;;1.80;;
6475;SDS011;3271;51.910;5.840;2023-02-28T12:36:32;3.42;;;2.30;;
6475;SDS011;3271;51.910;5.840;2023-02-28T12:39:00;1.83;;;1.73;;
6475;SDS011;3271;51.910;5.840;2023-02-28T12:41:37;1.83;;;1.73;;
6475;SDS011;3271;51.910;5.840;2023-02-28T12:44:06;1.98;;;1.80;;
6475;SDS011;3271;51.910;5.840;2023-02-28T12:46:41;2.00;;;1.90;;
6475;SDS011;3271;51.910;5.840;2023-02-28T12:49:10;1.88;;;1.73;;
6475;SDS011;3271;51.910;5.840;2023-02-28T12:51:38;2.22;;;2.00;;
6475;SDS011;3271;51.910;5.840;2023-02-28T12:56:33;2.92;;;2.20;;
6475;SDS011;3271;51.910;5.840;2023-02-28T12:59:03;2.58;;;2.28;;
6475;SDS011;3271;51.910;5.840;2023-02-28T13:01:36;2.50;;;2.30;;
6475;SDS011;3271;51.910;5.840;2023-02-28T13:09:21;2.15;;;1.95;;
6475;SDS011;3271;51.910;5.840;2023-02-28T13:11:50;2.42;;;2.22;;
6475;SDS011;3271;51.910;5.840;2023-02-28T13:14:22;2.63;;;2.17;;
6475;SDS011;3271;51.910;5.840;2023-02-28T13:16:54;2.15;;;1.95;;
6475;SDS011;3271;51.910;5.840;2023-02-28T13:19:21;1.83;;;1.70;;
6475;SDS011;3271;51.910;5.840;2023-02-28T13:21:49;1.80;;;1.70;;
6475;SDS011;3271;51.910;5.840;2023-02-28T13:24:36;2.17;;;1.77;;
6475;SDS011;3271;51.910;5.840;2023-02-28T13:29:28;2.30;;;2.10;;
6475;SDS011;3271;51.910;5.840;2023-02-28T13:34:30;2.20;;;1.67;;
6475;SDS011;3271;51.910;5.840;2023-02-28T13:49:55;2.20;;;1.63;;
6475;SDS011;3271;51.910;5.840;2023-02-28T13:55:31;2.08;;;1.88;;
6475;SDS011;3271;51.910;5.840;2023-02-28T14:03:33;2.10;;;1.90;;
6475;SDS011;3271;51.910;5.840;2023-02-28T14:06:15;2.00;;;1.90;;
6475;SDS011;3271;51.910;5.840;2023-02-28T14:11:30;1.45;;;1.35;;
6475;SDS011;3271;51.910;5.840;2023-02-28T14:13:56;2.03;;;1.50;;
6475;SDS011;3271;51.910;5.840;2023-02-28T14:16:23;1.42;;;1.33;;
6475;SDS011;3271;51.910;5.840;2023-02-28T14:18:55;1.70;;;1.60;;
6475;SDS011;3271;51.910;5.840;2023-02-28T14:21:26;1.70;;;1.60;;
6475;SDS011;3271;51.910;5.840;2023-02-28T14:26:29;2.03;;;1.63;;
6475;SDS011;3271;51.910;5.840;2023-02-28T14:31:47;1.80;;;1.70;;
6475;SDS011;3271;51.910;5.840;2023-02-28T14:37:00;2.53;;;1.70;;
6475;SDS011;3271;51.910;5.840;2023-02-28T14:39:27;1.77;;;1.67;;
6475;SDS011;3271;51.910;5.840;2023-02-28T14:41:55;1.77;;;1.50;;
6475;SDS011;3271;51.910;5.840;2023-02-28T14:44:24;2.17;;;1.77;;
6475;SDS011;3271;51.910;5.840;2023-02-28T14:46:57;2.17;;;1.80;;
6475;SDS011;3271;51.910;5.840;2023-02-28T14:49:29;1.85;;;1.73;;
6475;SDS011;3271;51.910;5.840;2023-02-28T14:54:35;2.47;;;1.27;;
6475;SDS011;3271;51.910;5.840;2023-02-28T14:57:01;1.77;;;1.35;;
6475;SDS011;3271;51.910;5.840;2023-02-28T15:05:02;2.30;;;2.08;;
6475;SDS011;3271;51.910;5.840;2023-02-28T15:07:36;1.55;;;1.45;;
6475;SDS011;3271;51.910;5.840;2023-02-28T15:10:14;1.90;;;1.70;;
6475;SDS011;3271;51.910;5.840;2023-02-28T15:12:41;2.47;;;1.90;;
6475;SDS011;3271;51.910;5.840;2023-02-28T15:15:14;2.70;;;1.92;;
6475;SDS011;3271;51.910;5.840;2023-02-28T15:17:41;1.63;;;1.52;;
6475;SDS011;3271;51.910;5.840;2023-02-28T15:20:10;1.90;;;1.70;;
6475;SDS011;3271;51.910;5.840;2023-02-28T15:22:37;1.85;;;1.63;;
6475;SDS011;3271;51.910;5.840;2023-02-28T15:25:04;2.92;;;1.80;;
6475;SDS011;3271;51.910;5.840;2023-02-28T15:27:33;1.60;;;1.50;;
6475;SDS011;3271;51.910;5.840;2023-02-28T15:30:06;1.70;;;1.60;;
6475;SDS011;3271;51.910;5.840;2023-02-28T15:33:05;2.63;;;2.38;;
6475;SDS011;3271;51.910;5.840;2023-02-28T15:35:33;2.55;;;1.60;;
6475;SDS011;3271;51.910;5.840;2023-02-28T15:38:03;2.63;;;1.70;;
6475;SDS011;3271;51.910;5.840;2023-02-28T15:40:32;1.75;;;1.65;;
6475;SDS011;3271;51.910;5.840;2023-02-28T15:43:06;2.20;;;1.90;;
6475;SDS011;3271;51.910;5.840;2023-02-28T15:45:33;1.77;;;1.67;;
6475;SDS011;3271;51.910;5.840;2023-02-28T15:48:03;1.92;;;1.63;;
6475;SDS011;3271;51.910;5.840;2023-02-28T15:50:29;2.15;;;1.70;;
6475;SDS011;3271;51.910;5.840;2023-02-28T15:52:55;1.77;;;1.67;;
6475;SDS011;3271;51.910;5.840;2023-02-28T15:55:22;5.07;;;2.50;;
6475;SDS011;3271;51.910;5.840;2023-02-28T15:57:50;2.83;;;2.38;;
6475;SDS011;3271;51.910;5.840;2023-02-28T16:00:19;3.67;;;2.05;;
6475;SDS011;3271;51.910;5.840;2023-02-28T16:02:46;2.92;;;2.47;;
6475;SDS011;3271;51.910;5.840;2023-02-28T16:07:39;2.55;;;2.35;;
6475;SDS011;3271;51.910;5.840;2023-02-28T16:10:06;2.50;;;2.30;;
6475;SDS011;3271;51.910;5.840;2023-02-28T16:12:35;2.70;;;2.50;;
6475;SDS011;3271;51.910;5.840;2023-02-28T16:15:02;2.55;;;2.35;;
6475;SDS011;3271;51.910;5.840;2023-02-28T16:17:31;2.60;;;2.30;;
6475;SDS011;3271;51.910;5.840;2023-02-28T16:19:58;2.70;;;2.50;;
6475;SDS011;3271;51.910;5.840;2023-02-28T16:22:24;2.38;;;2.17;;
6475;SDS011;3271;51.910;5.840;2023-02-28T16:24:51;4.05;;;2.60;;
6475;SDS011;3271;51.910;5.840;2023-02-28T16:27:20;2.72;;;2.25;;
6475;SDS011;3271;51.910;5.840;2023-02-28T16:29:47;2.30;;;2.10;;
6475;SDS011;3271;51.910;5.840;2023-02-28T16:32:14;3.08;;;2.78;;
6475;SDS011;3271;51.910;5.840;2023-02-28T16:34:41;2.55;;;2.33;;
6475;SDS011;3271;51.910;5.840;2023-02-28T16:37:13;2.55;;;2.35;;
6475;SDS011;3271;51.910;5.840;2023-02-28T16:39:40;3.22;;;2.38;;
6475;SDS011;3271;51.910;5.840;2023-02-28T16:42:07;2.50;;;2.30;;
6475;SDS011;3271;51.910;5.840;2023-02-28T16:44:34;2.20;;;1.98;;
6475;SDS011;3271;51.910;5.840;2023-02-28T16:47:01;2.33;;;2.13;;
6475;SDS011;3271;51.910;5.840;2023-02-28T16:49:27;2.72;;;2.17;;
6475;SDS011;3271;51.910;5.840;2023-02-28T16:51:53;2.55;;;2.35;;
6475;SDS011;3271;51.910;5.840;2023-02-28T16:54:19;2.10;;;2.00;;
6475;SDS011;3271;51.910;5.840;2023-02-28T16:56:46;2.35;;;2.15;;
6475;SDS011;3271;51.910;5.840;2023-02-28T16:59:12;2.58;;;2.38;;
6475;SDS011;3271;51.910;5.840;2023-02-28T17:01:38;2.58;;;2.38;;
6475;SDS011;3271;51.910;5.840;2023-02-28T17:04:05;3.58;;;2.60;;
6475;SDS011;3271;51.910;5.840;2023-02-28T17:06:31;2.58;;;2.38;;
6475;SDS011;3271;51.910;5.840;2023-02-28T17:08:57;2.40;;;2.30;;
6475;SDS011;3271;51.910;5.840;2023-02-28T17:11:24;2.58;;;2.38;;
6475;SDS011;3271;51.910;5.840;2023-02-28T17:13:50;2.70;;;2.50;;
6475;SDS011;3271;51.910;5.840;2023-02-28T17:16:26;3.47;;;2.55;;
6475;SDS011;3271;51.910;5.840;2023-02-28T17:18:54;4.50;;;4.10;;